createdAt,value
2023-02-06T00:01:49.383Z,0.07
2023-02-06T00:04:17.789Z,0.09
2023-02-06T00:06:47.208Z,0.04
2023-02-06T00:09:15.839Z,0.01
2023-02-06T00:11:45.214Z,0.02
2023-02-06T00:14:13.847Z,0.02
2023-02-06T00:17:02.104Z,0.04
2023-02-06T00:19:31.857Z,0.06
2023-02-06T00:22:01.006Z,0.08
2023-02-06T00:24:29.441Z,0.09
2023-02-06T00:26:57.717Z,0.12
2023-02-06T00:29:26.149Z,0.17
2023-02-06T00:31:54.711Z,0.18
2023-02-06T00:34:23.068Z,0.17
2023-02-06T00:36:52.194Z,0.17
2023-02-06T00:39:20.691Z,0.35
2023-02-06T00:41:50.416Z,0.50
2023-02-06T00:44:19.361Z,0.49
2023-02-06T00:46:47.691Z,0.43
2023-02-06T00:49:16.131Z,0.42
2023-02-06T00:51:44.632Z,0.43
2023-02-06T00:54:12.934Z,0.43
2023-02-06T00:56:43.806Z,0.46
2023-02-06T00:59:12.208Z,0.48
2023-02-06T01:01:41.340Z,0.48
2023-02-06T01:04:09.636Z,0.50
2023-02-06T01:06:59.338Z,0.50
2023-02-06T01:09:27.769Z,0.52
2023-02-06T01:11:58.145Z,0.55
2023-02-06T01:14:27.575Z,0.51
2023-02-06T01:16:56.006Z,0.52
2023-02-06T01:19:25.180Z,0.53
2023-02-06T01:21:53.953Z,0.55
2023-02-06T01:24:22.685Z,0.56
2023-02-06T01:26:50.974Z,0.60
2023-02-06T01:29:20.240Z,0.63
2023-02-06T01:31:48.702Z,0.63
2023-02-06T01:34:18.870Z,0.62
2023-02-06T01:36:47.694Z,0.59
2023-02-06T01:39:16.046Z,0.60
2023-02-06T01:41:44.370Z,0.60
2023-02-06T01:44:23.770Z,0.57
2023-02-06T01:46:54.475Z,0.53
2023-02-06T01:49:31.299Z,0.50
2023-02-06T01:52:13.407Z,0.48
2023-02-06T01:54:43.884Z,0.45
2023-02-06T01:57:12.495Z,0.45
2023-02-06T01:59:41.622Z,0.46
2023-02-06T02:02:10.079Z,0.45
2023-02-06T02:04:38.457Z,0.44
2023-02-06T02:07:22.821Z,0.41
2023-02-06T02:09:51.279Z,0.41
2023-02-06T02:12:19.909Z,0.39
2023-02-06T02:14:48.789Z,0.36
2023-02-06T02:17:56.538Z,0.38
2023-02-06T02:20:54.340Z,0.44
2023-02-06T02:23:46.139Z,0.46
2023-02-06T02:26:14.442Z,0.46
2023-02-06T02:28:52.118Z,0.47
2023-02-06T02:31:52.401Z,0.44
2023-02-06T02:34:43.668Z,0.45
2023-02-06T02:37:38.057Z,0.47
2023-02-06T02:40:09.615Z,0.43
2023-02-06T02:42:47.211Z,0.39
2023-02-06T02:45:26.063Z,0.42
2023-02-06T02:48:03.862Z,0.43
2023-02-06T02:50:35.059Z,0.44
2023-02-06T02:53:03.853Z,0.42
2023-02-06T02:55:33.871Z,0.38
2023-02-06T02:58:08.781Z,0.40
2023-02-06T03:00:40.370Z,0.40
2023-02-06T03:03:11.195Z,0.37
2023-02-06T03:05:59.031Z,0.34
2023-02-06T03:08:53.140Z,0.34
2023-02-06T03:11:24.260Z,0.34
2023-02-06T03:14:03.241Z,0.33
2023-02-06T03:16:46.295Z,0.30
2023-02-06T03:19:25.601Z,0.29
2023-02-06T03:21:54.044Z,0.31
2023-02-06T03:24:27.154Z,0.33
2023-02-06T03:26:59.169Z,0.34
2023-02-06T03:29:31.886Z,0.36
2023-02-06T03:32:12.674Z,0.35
2023-02-06T03:35:03.930Z,0.37
2023-02-06T03:37:32.733Z,0.39
2023-02-06T03:40:20.883Z,0.37
2023-02-06T03:42:52.152Z,0.38
2023-02-06T03:45:23.340Z,0.33
2023-02-06T03:47:52.115Z,0.32
2023-02-06T03:50:21.365Z,0.34
2023-02-06T03:52:50.006Z,0.29
2023-02-06T03:55:22.562Z,0.31
2023-02-06T03:57:56.906Z,0.32
2023-02-06T04:00:25.620Z,0.34
2023-02-06T04:02:54.129Z,0.39
2023-02-06T04:05:22.536Z,0.42
2023-02-06T04:07:52.862Z,0.41
2023-02-06T04:10:22.022Z,0.45
2023-02-06T04:12:50.524Z,0.48
2023-02-06T04:15:19.362Z,0.48
2023-02-06T04:17:59.547Z,0.46
2023-02-06T04:20:29.686Z,0.45
2023-02-06T04:22:59.177Z,0.48
2023-02-06T04:25:27.607Z,0.52
2023-02-06T04:27:56.483Z,0.57
2023-02-06T04:30:24.974Z,0.64
2023-02-06T04:32:53.454Z,0.65
2023-02-06T04:35:21.900Z,0.67
2023-02-06T04:37:50.237Z,0.69
2023-02-06T04:40:18.756Z,0.70
2023-02-06T04:42:47.684Z,0.72
2023-02-06T04:45:16.122Z,0.77
2023-02-06T04:47:45.237Z,0.73
2023-02-06T04:50:13.877Z,0.72
2023-02-06T04:52:42.615Z,0.69
2023-02-06T04:55:10.972Z,0.68
2023-02-06T04:57:40.871Z,0.69
2023-02-06T05:00:10.532Z,0.74
2023-02-06T05:02:40.050Z,0.76
2023-02-06T05:05:09.002Z,0.73
2023-02-06T05:07:38.734Z,0.65
2023-02-06T05:10:09.142Z,0.60
2023-02-06T05:12:38.450Z,0.59
2023-02-06T05:15:07.834Z,0.63
2023-02-06T05:17:37.201Z,0.64
2023-02-06T05:20:06.882Z,0.66
2023-02-06T05:22:35.341Z,0.67
2023-02-06T05:25:03.906Z,0.66
2023-02-06T05:27:32.541Z,0.69
2023-02-06T05:30:01.416Z,0.74
2023-02-06T05:32:29.849Z,0.79
2023-02-06T05:34:58.298Z,0.82
2023-02-06T05:37:26.604Z,0.80
2023-02-06T05:39:55.051Z,0.78
2023-02-06T05:42:23.568Z,0.80
2023-02-06T05:44:52.036Z,0.85
2023-02-06T05:47:20.281Z,0.88
2023-02-06T05:49:48.613Z,0.88
2023-02-06T05:52:17.170Z,0.87
2023-02-06T05:54:45.806Z,0.83
2023-02-06T05:57:14.268Z,0.74
2023-02-06T05:59:42.724Z,0.69
2023-02-06T06:04:50.571Z,0.19
2023-02-06T06:07:19.138Z,0.54
2023-02-06T06:09:48.107Z,0.54
2023-02-06T06:12:20.045Z,0.51
2023-02-06T06:14:48.275Z,0.51
2023-02-06T06:17:16.832Z,0.56
2023-02-06T06:19:45.192Z,0.58
2023-02-06T06:22:13.557Z,0.61
2023-02-06T06:24:41.848Z,0.66
2023-02-06T06:27:10.996Z,0.69
2023-02-06T06:29:39.814Z,0.67
2023-02-06T06:32:08.346Z,0.68
2023-02-06T06:34:37.008Z,0.65
2023-02-06T06:37:06.233Z,0.61
2023-02-06T06:39:34.973Z,0.63
2023-02-06T06:42:04.658Z,0.66
2023-02-06T06:44:33.425Z,0.69
2023-02-06T06:47:01.781Z,0.73
2023-02-06T06:49:30.191Z,0.76
2023-02-06T06:51:58.541Z,0.81
2023-02-06T06:54:27.487Z,0.80
2023-02-06T06:56:55.936Z,0.81
2023-02-06T06:59:24.483Z,0.83
2023-02-06T07:01:52.853Z,0.87
2023-02-06T07:04:21.346Z,0.86
2023-02-06T07:06:51.823Z,0.85
2023-02-06T07:09:20.590Z,0.85
2023-02-06T07:11:48.971Z,0.87
2023-02-06T07:14:18.021Z,0.92
2023-02-06T07:16:46.332Z,0.95
2023-02-06T07:19:14.984Z,0.99
2023-02-06T07:21:43.571Z,0.96
2023-02-06T07:24:12.313Z,0.96
2023-02-06T07:26:41.766Z,1.02
2023-02-06T07:29:10.260Z,1.10
2023-02-06T07:31:38.965Z,1.13
2023-02-06T07:34:07.780Z,1.18
2023-02-06T07:36:36.088Z,1.21
2023-02-06T07:39:04.675Z,1.23
2023-02-06T07:41:33.131Z,1.21
2023-02-06T07:44:01.493Z,1.19
2023-02-06T07:46:30.199Z,1.18
2023-02-06T07:48:58.504Z,1.21
2023-02-06T09:53:41.846Z,-0.82
2023-02-06T09:56:28.269Z,-0.19
2023-02-06T09:59:21.900Z,-0.05
2023-02-06T10:02:05.649Z,0.05
2023-02-06T10:04:40.815Z,0.05
2023-02-06T10:07:35.782Z,0.07
2023-02-06T10:10:15.723Z,0.12
2023-02-06T10:12:59.155Z,0.14
2023-02-06T10:15:46.740Z,0.05
2023-02-06T10:18:34.010Z,0.04
2023-02-06T10:21:07.571Z,0.14
2023-02-06T10:23:39.041Z,0.24
2023-02-06T10:26:18.681Z,0.29
2023-02-06T10:28:49.423Z,0.21
2023-02-06T10:31:24.423Z,0.17
2023-02-06T10:33:52.846Z,0.12
2023-02-06T10:36:59.142Z,0.13
2023-02-06T10:39:46.064Z,0.27
2023-02-06T10:42:37.374Z,0.32
2023-02-06T10:45:28.027Z,0.32
2023-02-06T10:48:04.653Z,0.31
2023-02-06T10:50:37.578Z,0.35
2023-02-06T10:53:26.074Z,0.39
2023-02-06T10:56:03.840Z,0.47
2023-02-06T10:58:43.243Z,0.57
2023-02-06T11:01:25.034Z,0.64
2023-02-06T11:04:00.541Z,0.71
2023-02-06T11:06:28.941Z,0.74
2023-02-06T11:08:58.367Z,0.76
2023-02-06T11:11:32.078Z,0.83
2023-02-06T11:14:08.314Z,0.89
2023-02-06T11:16:37.730Z,0.93
2023-02-06T11:19:31.641Z,1.02
2023-02-06T11:22:16.614Z,1.01
2023-02-06T11:25:03.991Z,0.93
2023-02-06T11:27:33.763Z,0.89
2023-02-06T11:30:35.341Z,0.89
2023-02-06T11:33:11.744Z,0.94
2023-02-06T11:35:47.945Z,0.92
2023-02-06T11:38:22.684Z,0.86
2023-02-06T11:41:02.448Z,0.90
2023-02-06T11:43:43.478Z,1.10
2023-02-06T11:46:20.537Z,1.38
2023-02-06T11:48:56.085Z,1.54
2023-02-06T11:51:25.091Z,1.47
2023-02-06T11:54:03.555Z,1.39
2023-02-06T11:56:32.270Z,1.28
2023-02-06T11:59:07.566Z,1.19
2023-02-06T12:01:47.067Z,1.04
2023-02-06T12:04:40.874Z,1.02
2023-02-06T12:07:30.798Z,1.00
2023-02-06T12:09:59.447Z,1.00
2023-02-06T12:12:37.558Z,1.02
2023-02-06T12:15:33.136Z,1.02
2023-02-06T12:18:00.103Z,1.07
2023-02-06T12:20:31.837Z,1.07
2023-02-06T12:23:11.797Z,1.06
2023-02-06T12:25:43.391Z,1.22
2023-02-06T12:28:16.542Z,1.41
2023-02-06T12:30:51.603Z,1.53
2023-02-06T12:33:23.670Z,1.65
2023-02-06T12:35:59.055Z,1.84
2023-02-06T12:38:50.709Z,2.06
2023-02-06T12:41:41.049Z,2.23
2023-02-06T12:44:43.640Z,2.30
2023-02-06T12:47:31.441Z,2.17
2023-02-06T12:50:09.866Z,1.90
2023-02-06T12:52:46.996Z,1.76
2023-02-06T12:55:18.558Z,1.63
2023-02-06T12:57:47.009Z,1.45
2023-02-06T13:00:53.407Z,1.28
2023-02-06T13:03:29.526Z,1.03
2023-02-06T13:06:03.170Z,0.83
2023-02-06T13:08:39.995Z,0.78
2023-02-06T13:11:17.685Z,0.75
2023-02-06T13:13:46.840Z,0.67
2023-02-06T13:16:15.586Z,0.57
2023-02-06T13:18:52.714Z,0.51
2023-02-06T13:21:24.516Z,0.43
2023-02-06T13:24:02.458Z,0.34
2023-02-06T13:26:43.471Z,0.34
2023-02-06T13:29:28.956Z,0.36
2023-02-06T13:32:18.279Z,0.58
2023-02-06T13:34:50.777Z,0.79
2023-02-06T13:37:37.596Z,0.81
2023-02-06T13:40:29.118Z,0.78
2023-02-06T13:43:20.082Z,0.71
2023-02-06T13:46:07.632Z,0.67
2023-02-06T13:48:58.198Z,0.61
2023-02-06T13:51:32.436Z,0.52
2023-02-06T13:54:07.085Z,0.52
2023-02-06T13:56:39.058Z,0.52
2023-02-06T13:59:16.458Z,0.55
2023-02-06T14:01:45.815Z,0.58
2023-02-06T14:04:28.588Z,0.59
2023-02-06T14:07:07.030Z,0.55
2023-02-06T14:10:08.998Z,0.52
2023-02-06T14:12:44.722Z,0.48
2023-02-06T14:15:28.492Z,0.43
2023-02-06T14:18:27.164Z,0.35
2023-02-06T14:21:07.828Z,0.28
2023-02-06T14:24:01.438Z,0.18
2023-02-06T14:26:49.930Z,0.07
2023-02-06T14:29:27.510Z,-0.04
2023-02-06T14:31:55.856Z,-0.04
2023-02-06T14:35:02.336Z,-0.06
2023-02-06T14:37:52.943Z,-0.06
2023-02-06T14:40:23.278Z,-0.07
2023-02-06T14:42:53.042Z,-0.09
2023-02-06T14:45:31.943Z,-0.07
2023-02-06T14:48:05.102Z,-0.06
2023-02-06T14:50:39.308Z,-0.08
2023-02-06T14:53:26.634Z,-0.09
2023-02-06T14:56:15.476Z,-0.08
2023-02-06T14:58:47.022Z,-0.11
2023-02-06T15:01:22.163Z,-0.16
2023-02-06T15:03:52.938Z,-0.22
2023-02-06T15:06:41.758Z,-0.20
2023-02-06T15:09:23.073Z,-0.17
2023-02-06T15:11:57.801Z,-0.20
2023-02-06T15:14:28.638Z,-0.22
2023-02-06T15:16:59.536Z,-0.24
2023-02-06T15:19:31.864Z,-0.23
2023-02-06T15:22:11.786Z,-0.24
2023-02-06T15:24:55.372Z,-0.24
2023-02-06T15:27:32.257Z,-0.23
2023-02-06T15:30:01.162Z,-0.27
2023-02-06T15:32:32.826Z,-0.30
2023-02-06T15:35:01.609Z,-0.29
2023-02-06T15:37:34.990Z,-0.27
2023-02-06T15:40:28.498Z,-0.27
2023-02-06T15:42:57.209Z,-0.27
2023-02-06T17:51:22.828Z,-3.49
2023-02-06T17:53:51.338Z,-2.92
2023-02-06T17:56:18.871Z,-2.67
2023-02-06T17:58:46.114Z,-2.45
2023-02-06T18:01:18.558Z,-2.34
2023-02-06T18:53:41.840Z,-3.89
2023-02-06T18:56:12.031Z,-3.42
2023-02-06T18:58:40.984Z,-3.21
2023-02-06T19:01:17.152Z,-2.99
2023-02-06T19:03:47.362Z,-2.87
2023-02-06T19:06:31.946Z,-2.82
2023-02-06T19:09:00.926Z,-2.76
2023-02-06T19:11:31.281Z,-2.73
2023-02-06T19:13:59.790Z,-2.70
2023-02-06T19:16:30.197Z,-2.68
2023-02-06T19:18:58.889Z,-2.68
2023-02-06T19:21:28.343Z,-2.66
2023-02-06T19:23:58.434Z,-2.65
2023-02-06T19:26:27.546Z,-2.58
2023-02-06T19:28:56.149Z,-2.46
2023-02-06T19:31:25.089Z,-2.42
2023-02-06T19:33:58.314Z,-2.40
2023-02-06T19:36:27.538Z,-2.39
2023-02-06T19:38:57.663Z,-2.39
2023-02-06T19:41:28.145Z,-2.37
2023-02-06T19:43:57.513Z,-2.36
2023-02-06T19:46:26.843Z,-2.37
2023-02-06T19:48:56.042Z,-2.39
2023-02-06T19:51:29.951Z,-2.39
2023-02-06T19:53:59.719Z,-2.42
2023-02-06T19:56:34.755Z,-2.41
2023-02-06T19:59:24.134Z,-2.35
2023-02-06T20:02:00.616Z,-2.23
2023-02-06T20:48:12.454Z,-2.86
2023-02-06T20:50:40.986Z,-2.86
2023-02-06T20:53:09.363Z,-2.85
2023-02-06T20:55:44.581Z,-2.84
2023-02-06T20:58:13.018Z,-2.84
2023-02-06T21:00:41.828Z,-2.85
2023-02-06T21:03:10.266Z,-2.84
2023-02-06T21:05:39.512Z,-2.84
2023-02-06T21:08:11.566Z,-2.78
2023-02-06T21:10:41.096Z,-2.68
2023-02-06T21:13:09.467Z,-2.63
2023-02-06T21:15:38.175Z,-2.59
2023-02-06T21:18:06.562Z,-2.58
2023-02-06T21:20:35.869Z,-2.58
2023-02-06T21:23:04.836Z,-2.58
2023-02-06T21:25:33.142Z,-2.58
2023-02-06T21:28:01.784Z,-2.55
2023-02-06T21:30:30.809Z,-2.52
2023-02-06T21:32:59.161Z,-2.48
2023-02-06T21:35:30.537Z,-2.45
2023-02-06T21:37:58.943Z,-2.38
2023-02-06T21:40:27.222Z,-2.34
2023-02-06T21:42:55.485Z,-2.31
2023-02-06T21:45:23.803Z,-2.28
2023-02-06T21:47:52.649Z,-2.26
2023-02-06T21:50:21.143Z,-2.25
2023-02-06T21:52:49.385Z,-2.26
2023-02-06T21:55:18.070Z,-2.27
2023-02-06T21:57:46.298Z,-2.26
2023-02-06T22:00:15.273Z,-2.26
2023-02-06T22:02:43.565Z,-2.24
2023-02-06T22:05:11.852Z,-2.13
2023-02-06T22:07:40.722Z,-2.08
2023-02-06T22:10:15.166Z,-2.07
2023-02-06T22:12:48.925Z,-2.07
2023-02-06T22:15:17.458Z,-2.10
2023-02-06T22:17:45.739Z,-2.12
2023-02-06T22:20:16.331Z,-2.12
2023-02-06T22:22:44.883Z,-2.14
2023-02-06T22:25:13.209Z,-2.15
2023-02-06T22:27:42.219Z,-2.17
2023-02-06T22:30:11.506Z,-2.15
2023-02-06T22:32:41.937Z,-2.08
2023-02-06T22:35:10.726Z,-2.06
2023-02-06T22:37:39.103Z,-2.06
2023-02-06T22:40:08.014Z,-2.10
2023-02-06T22:42:37.734Z,-2.10
2023-02-06T22:45:06.834Z,-2.09
2023-02-06T22:47:35.569Z,-2.09
2023-02-06T22:50:03.975Z,-2.10
2023-02-06T22:52:52.535Z,-2.09
2023-02-06T22:55:20.837Z,-2.11
2023-02-06T22:57:49.857Z,-2.13
2023-02-06T23:00:18.706Z,-2.08
2023-02-06T23:02:47.762Z,-2.06
2023-02-06T23:05:16.083Z,-2.09
2023-02-06T23:07:44.768Z,-2.12
2023-02-06T23:10:13.200Z,-2.12
2023-02-06T23:12:41.530Z,-2.13
2023-02-06T23:15:10.657Z,-2.17
2023-02-06T23:17:39.027Z,-2.21
2023-02-06T23:20:07.863Z,-2.24
2023-02-06T23:22:36.704Z,-2.25
2023-02-06T23:25:05.586Z,-2.22
2023-02-06T23:27:34.480Z,-52.51
2023-02-06T23:30:03.053Z,-128.00
2023-02-06T23:32:31.495Z,-128.00
2023-02-06T23:35:00.209Z,-128.00
2023-02-06T23:37:28.895Z,-128.00
2023-02-06T23:39:57.328Z,-128.00
2023-02-06T23:42:25.530Z,-128.00
2023-02-06T23:44:55.060Z,-128.00
2023-02-06T23:47:23.516Z,-128.00
2023-02-06T23:49:51.926Z,-128.00
2023-02-06T23:52:20.098Z,-128.00
2023-02-06T23:54:48.379Z,-128.00
2023-02-06T23:57:16.705Z,-128.00
2023-02-06T23:59:45.528Z,-128.00
